Time;durP1;ratioP1;P1;durP2;ratioP2;P2;SDS_P1;SDS_P2;PMS_P1;PMS_P2;Temp;Humidity;BMP_temperature;BMP_pressure;BME280_temperature;BME280_humidity;BME280_pressure;Samples;Min_cycle;Max_cycle;Signal;HPM_P1;HPM_P2
2023/01/20 00:01:33;;;;;;;5.33;1.43;;;;;;;16.74;51.83;98300.38;5069387;28;20206;-56
2023/01/20 00:04:00;;;;;;;5.47;1.50;;;;;;;16.74;51.62;98270.72;5069474;28;20188;-56
2023/01/20 00:06:28;;;;;;;6.93;1.80;;;;;;;16.76;51.77;98277.53;5069265;28;20291;-56
2023/01/20 00:08:56;;;;;;;5.13;1.33;;;;;;;16.84;52.07;98329.34;5072533;28;20196;-56
2023/01/20 00:11:25;;;;;;;6.30;1.50;;;;;;;16.94;51.33;98325.94;5072997;28;20676;-60
2023/01/20 00:13:55;;;;;;;1.97;1.43;;;;;;;16.89;51.66;98328.09;5072889;28;20224;-59
2023/01/20 00:16:22;;;;;;;2.03;1.30;;;;;;;16.85;51.69;98299.59;5072865;28;20222;-60
2023/01/20 00:18:49;;;;;;;6.00;1.73;;;;;;;16.74;51.61;98295.13;5072574;28;20226;-60
2023/01/20 00:21:16;;;;;;;5.03;1.80;;;;;;;16.70;51.61;98283.22;5072290;28;20278;-61
2023/01/20 00:23:44;;;;;;;10.87;1.40;;;;;;;16.79;51.73;98316.63;5072696;28;20196;-56
2023/01/20 00:26:13;;;;;;;3.27;1.83;;;;;;;16.72;51.77;98314.53;5073099;28;20192;-56
2023/01/20 00:28:41;;;;;;;4.10;1.67;;;;;;;16.80;51.66;98346.28;5073084;28;20192;-56
2023/01/20 00:31:13;;;;;;;5.50;1.63;;;;;;;16.82;51.76;98352.22;5072789;28;20206;-62
2023/01/20 00:33:40;;;;;;;6.13;1.37;;;;;;;16.88;50.75;98339.53;5072541;28;20707;-59
2023/01/20 00:36:08;;;;;;;6.53;1.53;;;;;;;16.87;50.58;98348.31;5072549;28;20192;-59
2023/01/20 00:38:36;;;;;;;2.57;1.70;;;;;;;16.86;50.99;98348.44;5072973;28;20196;-59
2023/01/20 00:41:03;;;;;;;8.27;1.60;;;;;;;16.86;51.20;98351.88;5072620;28;20204;-59
2023/01/20 00:43:29;;;;;;;4.23;1.50;;;;;;;16.83;51.32;98330.31;5072324;28;20235;-59
2023/01/20 00:45:58;;;;;;;2.87;1.37;;;;;;;16.84;51.11;98335.44;5072464;28;20582;-59
2023/01/20 00:48:25;;;;;;;3.87;1.50;;;;;;;16.86;51.49;98335.31;5072500;28;20206;-56
2023/01/20 00:50:52;;;;;;;3.03;1.43;;;;;;;16.80;52.03;98341.03;5072326;28;20223;-60
2023/01/20 00:53:19;;;;;;;4.63;1.50;;;;;;;16.80;52.84;98354.97;5072468;28;20300;-60
2023/01/20 00:55:46;;;;;;;6.77;1.77;;;;;;;16.73;53.08;98358.13;5072450;28;20585;-61
2023/01/20 00:58:13;;;;;;;4.03;1.60;;;;;;;16.65;53.46;98349.06;5072617;28;20202;-60
2023/01/20 01:00:40;;;;;;;6.83;2.00;;;;;;;16.59;53.60;98362.53;5072215;28;20195;-61
2023/01/20 01:03:10;;;;;;;2.20;1.30;;;;;;;16.66;52.90;98376.91;5072101;28;20196;-60
2023/01/20 01:05:37;;;;;;;5.70;1.40;;;;;;;16.77;51.09;98372.69;5072232;28;20236;-60
2023/01/20 01:08:05;;;;;;;3.60;1.43;;;;;;;16.76;51.52;98378.88;5072106;28;20196;-60
2023/01/20 01:10:32;;;;;;;1.33;1.20;;;;;;;16.80;50.35;98370.69;5071784;28;20195;-60
2023/01/20 01:12:59;;;;;;;4.33;1.40;;;;;;;16.89;49.37;98369.19;5071689;28;20234;-60
2023/01/20 01:15:26;;;;;;;5.10;1.43;;;;;;;16.93;49.51;98394.25;5071495;28;20200;-59
2023/01/20 01:17:54;;;;;;;3.77;1.30;;;;;;;16.95;49.45;98423.78;5071561;28;20206;-61
2023/01/20 01:20:23;;;;;;;6.20;1.40;;;;;;;16.93;50.01;98425.69;5070926;28;20198;-60
2023/01/20 01:22:50;;;;;;;3.10;1.60;;;;;;;16.91;50.06;98420.56;5071770;28;20205;-61
2023/01/20 01:25:17;;;;;;;7.50;1.70;;;;;;;16.91;50.30;98423.16;5072096;28;20204;-61
2023/01/20 01:27:44;;;;;;;3.30;1.73;;;;;;;16.89;50.60;98418.97;5071787;28;20576;-61
2023/01/20 01:30:12;;;;;;;4.37;1.70;;;;;;;16.76;51.10;98415.56;5071930;28;20199;-60
2023/01/20 01:32:39;;;;;;;3.20;1.80;;;;;;;16.72;51.89;98411.47;5071623;28;20222;-61
2023/01/20 01:35:06;;;;;;;4.73;1.30;;;;;;;16.74;50.57;98401.72;5071626;28;20210;-56
2023/01/20 01:37:35;;;;;;;3.20;1.40;;;;;;;16.72;50.25;98425.41;5070890;28;20196;-56
2023/01/20 01:40:02;;;;;;;3.38;1.40;;;;;;;16.74;50.80;98441.88;5071145;28;20234;-57
2023/01/20 01:42:29;;;;;;;4.90;1.60;;;;;;;16.65;50.77;98451.22;5071223;28;20937;-57
2023/01/20 01:45:23;;;;;;;3.67;1.40;;;;;;;16.59;51.46;98469.94;5071547;28;20222;-56
2023/01/20 01:47:55;;;;;;;4.47;1.47;;;;;;;16.56;51.30;98440.53;5071152;28;20286;-56
2023/01/20 01:50:26;;;;;;;2.60;1.20;;;;;;;16.64;50.50;98404.16;5071321;28;20198;-56
2023/01/20 01:52:56;;;;;;;3.83;1.10;;;;;;;16.62;51.60;98391.19;5070910;28;20203;-60
2023/01/20 01:55:29;;;;;;;3.13;1.20;;;;;;;16.58;52.03;98423.75;5071620;28;20556;-59
2023/01/20 01:57:58;;;;;;;5.03;1.63;;;;;;;16.53;52.92;98418.00;5071173;28;20200;-61
2023/01/20 02:00:25;;;;;;;1.40;0.90;;;;;;;16.48;53.37;98414.84;5071188;28;20192;-61
2023/01/20 02:02:53;;;;;;;3.47;1.07;;;;;;;16.27;55.98;98356.13;5070929;28;20199;-60
2023/01/20 02:05:20;;;;;;;1.30;1.17;;;;;;;15.97;58.46;98369.59;5070906;28;20214;-60
2023/01/20 02:07:49;;;;;;;1.90;0.77;;;;;;;15.68;61.41;98365.50;5070932;28;20257;-60
2023/01/20 02:10:17;;;;;;;1.03;0.53;;;;;;;15.40;63.72;98376.94;5071005;28;20223;-60
2023/01/20 02:12:48;;;;;;;4.70;0.70;;;;;;;15.12;66.09;98370.91;5070970;28;20199;-57
2023/01/20 02:15:16;;;;;;;0.97;0.70;;;;;;;15.01;67.63;98393.47;5070912;28;20672;-61
2023/01/20 02:17:53;;;;;;;0.80;0.43;;;;;;;14.88;70.00;98385.59;5070430;28;20200;-61
2023/01/20 02:20:53;;;;;;;2.07;0.53;;;;;;;14.70;71.56;98378.91;5070501;28;20204;-61
2023/01/20 02:23:42;;;;;;;1.53;0.50;;;;;;;14.49;74.34;98387.16;5070508;28;20202;-60
2023/01/20 02:26:31;;;;;;;2.50;1.27;;;;;;;14.45;74.91;98384.81;5070324;28;20192;-61
2023/01/20 02:29:42;;;;;;;2.70;0.60;;;;;;;14.36;75.69;98370.56;5069878;28;20200;-61
2023/01/20 02:32:19;;;;;;;0.30;0.30;;;;;;;14.25;77.44;98374.75;5040634;28;20196;-59
2023/01/20 02:34:53;;;;;;;0.83;0.47;;;;;;;14.19;78.26;98383.81;5070274;28;20216;-61
2023/01/20 02:37:25;;;;;;;0.97;0.40;;;;;;;14.04;80.71;98395.19;5070513;28;20196;-61
2023/01/20 02:40:05;;;;;;;0.67;0.67;;;;;;;13.92;84.10;98383.72;5070521;28;20196;-60
2023/01/20 02:42:39;;;;;;;0.83;0.70;;;;;;;13.82;86.15;98393.03;5070118;28;20291;-56
2023/01/20 02:45:13;;;;;;;0.93;0.77;;;;;;;13.86;87.54;98391.94;5070180;28;20199;-56
2023/01/20 02:47:51;;;;;;;1.53;0.90;;;;;;;13.78;89.50;98384.53;5070087;28;20196;-56
2023/01/20 02:50:22;;;;;;;1.50;0.70;;;;;;;13.69;90.91;98379.03;5070120;28;20282;-56
2023/01/20 02:52:54;;;;;;;0.83;0.50;;;;;;;13.60;91.46;98411.72;5070256;28;20192;-56
2023/01/20 02:55:26;;;;;;;1.37;0.40;;;;;;;13.55;92.51;98398.09;5070363;28;20221;-56
2023/01/20 02:57:57;;;;;;;1.00;0.43;;;;;;;13.47;93.30;98382.06;5070187;28;20199;-57
2023/01/20 03:00:30;;;;;;;1.13;0.60;;;;;;;13.40;94.47;98392.03;5070230;28;20192;-61
2023/01/20 03:03:02;;;;;;;1.90;0.80;;;;;;;13.24;95.85;98403.41;5069835;28;20586;-56
2023/01/20 03:05:33;;;;;;;0.83;0.67;;;;;;;13.37;97.22;98422.63;5070174;28;20634;-56
2023/01/20 03:08:06;;;;;;;1.80;0.93;;;;;;;13.31;97.32;98399.53;5069551;28;20206;-60
2023/01/20 03:10:35;;;;;;;0.60;0.50;;;;;;;13.30;97.48;98416.09;5069914;28;20278;-55
2023/01/20 03:13:11;;;;;;;0.90;0.70;;;;;;;13.30;98.01;98413.50;5069928;28;20591;-56
2023/01/20 03:15:48;;;;;;;1.60;0.80;;;;;;;13.23;99.14;98402.56;5069956;28;20199;-56
2023/01/20 03:18:17;;;;;;;6.97;1.37;;;;;;;13.22;100.00;98397.44;5069720;28;20199;-59
2023/01/20 03:20:44;;;;;;;1.53;0.70;;;;;;;13.19;100.00;98410.66;5070000;28;20579;-60
2023/01/20 03:23:11;;;;;;;4.73;1.20;;;;;;;13.17;100.00;98395.13;5070087;28;20680;-57
2023/01/20 03:25:38;;;;;;;0.90;0.63;;;;;;;13.01;100.00;98370.81;5069974;28;20200;-61
2023/01/20 03:28:05;;;;;;;0.50;0.43;;;;;;;13.01;100.00;98386.44;5069846;28;20241;-56
2023/01/20 03:30:32;;;;;;;0.77;0.57;;;;;;;12.89;100.00;98393.19;5069775;28;20196;-60
2023/01/20 03:33:00;;;;;;;3.13;0.70;;;;;;;12.81;100.00;98411.00;5069529;28;20591;-60
2023/01/20 03:35:29;;;;;;;0.73;0.73;;;;;;;12.82;100.00;98404.88;5069580;28;20215;-60
2023/01/20 03:37:56;;;;;;;0.70;0.70;;;;;;;12.79;100.00;98394.63;5069215;28;20200;-60
2023/01/20 03:40:26;;;;;;;2.80;0.90;;;;;;;12.74;100.00;98404.47;5069938;28;20672;-59
2023/01/20 03:42:58;;;;;;;0.73;0.70;;;;;;;12.65;100.00;98394.53;5071630;28;20235;-59
2023/01/20 03:45:34;;;;;;;2.57;0.97;;;;;;;12.62;100.00;98389.53;5073698;28;20580;-60
2023/01/20 03:48:11;;;;;;;3.93;1.30;;;;;;;12.66;100.00;98372.78;5074020;28;20697;-59
2023/01/20 03:50:44;;;;;;;1.90;0.70;;;;;;;12.70;100.00;98372.56;5073668;28;20195;-60
2023/01/20 03:53:22;;;;;;;0.63;0.50;;;;;;;12.71;100.00;98371.63;5073523;28;20202;-60
2023/01/20 03:55:56;;;;;;;0.73;0.60;;;;;;;12.64;100.00;98364.25;5073356;28;20207;-59
2023/01/20 03:58:28;;;;;;;0.83;0.60;;;;;;;12.60;100.00;98370.53;5073482;28;20206;-56
2023/01/20 04:00:57;;;;;;;0.83;0.73;;;;;;;12.45;100.00;98367.00;5073303;28;20231;-55
2023/01/20 04:03:28;;;;;;;0.87;0.83;;;;;;;12.47;100.00;98343.50;5073670;28;20200;-56
2023/01/20 04:05:59;;;;;;;0.87;0.63;;;;;;;12.45;100.00;98350.56;5073767;28;20286;-56
2023/01/20 04:08:30;;;;;;;0.50;0.50;;;;;;;12.45;100.00;98355.75;5073285;28;20196;-57
2023/01/20 04:10:59;;;;;;;3.63;0.70;;;;;;;12.42;100.00;98366.31;5073549;28;20253;-59
2023/01/20 04:13:26;;;;;;;0.77;0.70;;;;;;;12.49;100.00;98378.09;5073363;28;20206;-59
2023/01/20 04:15:53;;;;;;;1.90;0.60;;;;;;;12.52;100.00;98367.53;5073210;28;20686;-60
2023/01/20 04:18:22;;;;;;;2.70;0.87;;;;;;;12.47;100.00;98356.53;5073460;28;20738;-59
2023/01/20 04:20:51;;;;;;;2.87;1.97;;;;;;;12.49;100.00;98362.50;5072820;28;20203;-59
2023/01/20 04:23:25;;;;;;;9.87;6.67;;;;;;;12.54;100.00;98347.44;5073265;28;20687;-61
2023/01/20 04:25:52;;;;;;;6.43;3.60;;;;;;;12.60;100.00;98326.28;5072845;28;20279;-60
2023/01/20 04:28:19;;;;;;;4.23;3.50;;;;;;;12.36;100.00;98321.53;5072981;28;20632;-59
2023/01/20 04:30:45;;;;;;;6.87;3.63;;;;;;;12.32;100.00;98335.63;5072880;28;20206;-60
2023/01/20 04:33:12;;;;;;;6.90;6.00;;;;;;;12.17;100.00;98300.06;5073223;28;20649;-60
2023/01/20 04:35:39;;;;;;;5.27;4.20;;;;;;;12.18;100.00;98301.72;5072529;28;20238;-56
2023/01/20 04:38:07;;;;;;;2.47;2.27;;;;;;;12.34;100.00;98312.13;5072904;28;20601;-57
2023/01/20 04:40:35;;;;;;;2.27;1.60;;;;;;;12.30;100.00;98305.44;5073209;28;20576;-56
2023/01/20 04:43:02;;;;;;;1.90;1.67;;;;;;;12.25;100.00;98312.63;5072746;28;20242;-57
2023/01/20 04:45:29;;;;;;;7.73;2.03;;;;;;;12.23;100.00;98317.91;5072869;28;20196;-57
2023/01/20 04:47:56;;;;;;;2.90;2.07;;;;;;;12.25;100.00;98307.41;5072314;28;20277;-57
2023/01/20 04:50:23;;;;;;;1.97;1.70;;;;;;;12.20;100.00;98315.47;5072774;28;20687;-56
2023/01/20 04:52:50;;;;;;;5.80;1.30;;;;;;;12.16;100.00;98316.56;5072152;28;20196;-60
2023/01/20 04:55:17;;;;;;;4.30;2.40;;;;;;;12.08;100.00;98323.94;5072622;28;20613;-60
2023/01/20 04:57:47;;;;;;;4.53;2.40;;;;;;;12.03;100.00;98304.31;5072358;28;20694;-57
2023/01/20 05:00:18;;;;;;;8.07;3.27;;;;;;;12.10;100.00;98283.09;5072215;28;20204;-60
2023/01/20 05:02:45;;;;;;;3.33;3.00;;;;;;;12.12;100.00;98280.41;5072112;28;20200;-60
2023/01/20 05:05:12;;;;;;;3.83;2.90;;;;;;;12.18;100.00;98269.69;5072379;28;20194;-60
2023/01/20 05:07:39;;;;;;;3.90;3.10;;;;;;;12.18;100.00;98235.88;5071851;28;20200;-60
2023/01/20 05:10:07;;;;;;;5.90;2.17;;;;;;;12.24;100.00;98251.13;5071830;28;20577;-60
2023/01/20 05:12:35;;;;;;;4.47;1.77;;;;;;;12.32;100.00;98252.34;5071987;28;20192;-60
2023/01/20 05:15:04;;;;;;;8.33;2.50;;;;;;;12.29;100.00;98252.56;5071727;28;20223;-60
2023/01/20 05:17:31;;;;;;;4.33;2.00;;;;;;;12.25;100.00;98251.03;5072218;28;20196;-60
2023/01/20 05:19:57;;;;;;;6.10;1.90;;;;;;;12.32;100.00;98261.94;5071517;28;20188;-60
2023/01/20 05:22:24;;;;;;;2.37;2.03;;;;;;;12.39;100.00;98246.81;5072071;28;20199;-56
2023/01/20 05:24:51;;;;;;;4.37;2.50;;;;;;;12.36;100.00;98253.03;5071397;28;20196;-56
2023/01/20 05:27:18;;;;;;;3.60;1.97;;;;;;;12.37;99.25;98259.91;5071883;28;20287;-56
2023/01/20 05:29:45;;;;;;;3.17;2.27;;;;;;;12.39;98.67;98236.41;5071459;28;20222;-56
2023/01/20 05:32:13;;;;;;;2.27;1.60;;;;;;;12.33;98.10;98245.41;5071810;28;20218;-56
2023/01/20 05:34:40;;;;;;;6.07;3.50;;;;;;;12.26;99.62;98244.91;5071536;28;20230;-56
2023/01/20 05:37:07;;;;;;;9.17;3.87;;;;;;;12.22;100.00;98227.78;5070801;28;20196;-56
2023/01/20 05:39:34;;;;;;;7.73;4.23;;;;;;;12.11;100.00;98226.69;5070461;28;20202;-56
2023/01/20 05:42:01;;;;;;;11.60;3.57;;;;;;;12.09;100.00;98218.97;5071436;28;20245;-56
2023/01/20 05:44:28;;;;;;;8.30;3.97;;;;;;;11.98;100.00;98203.13;5071201;28;20235;-55
2023/01/20 05:46:55;;;;;;;11.23;3.93;;;;;;;12.04;100.00;98200.22;5071448;28;20204;-56
2023/01/20 05:49:23;;;;;;;9.27;4.10;;;;;;;12.07;100.00;98202.66;5071195;28;20233;-56
2023/01/20 05:51:50;;;;;;;8.63;4.00;;;;;;;12.09;100.00;98186.94;5071217;28;20710;-59
2023/01/20 05:54:17;;;;;;;6.10;4.70;;;;;;;12.08;100.00;98212.09;5070649;28;20330;-59
2023/01/20 05:56:44;;;;;;;6.93;4.93;;;;;;;12.09;100.00;98212.94;5070947;28;20254;-60
2023/01/20 05:59:11;;;;;;;11.10;5.30;;;;;;;12.03;100.00;98215.91;5071306;28;20222;-60
2023/01/20 06:01:39;;;;;;;6.10;4.73;;;;;;;11.99;100.00;98210.03;5070588;28;20207;-60
2023/01/20 06:04:06;;;;;;;17.47;5.57;;;;;;;12.07;100.00;98218.25;5071345;28;20668;-60
2023/01/20 06:06:34;;;;;;;13.10;4.97;;;;;;;12.07;100.00;98205.25;5070901;28;20192;-56
2023/01/20 06:09:01;;;;;;;12.83;4.90;;;;;;;12.08;100.00;98195.66;5070143;28;20192;-57
2023/01/20 06:11:28;;;;;;;14.97;5.33;;;;;;;12.07;100.00;98197.44;5069524;28;20196;-56
2023/01/20 06:13:55;;;;;;;15.67;5.13;;;;;;;12.15;100.00;98182.25;5070228;28;20195;-55
2023/01/20 06:16:22;;;;;;;13.43;5.17;;;;;;;12.30;100.00;98181.34;5070853;28;20224;-60
2023/01/20 06:18:49;;;;;;;12.00;5.30;;;;;;;12.42;100.00;98168.56;5070414;28;20253;-60
2023/01/20 06:21:16;;;;;;;11.83;4.70;;;;;;;12.46;100.00;98154.47;5069723;28;20211;-58
2023/01/20 06:23:44;;;;;;;11.63;5.00;;;;;;;12.56;100.00;98160.81;5069117;28;20199;-60
2023/01/20 06:26:13;;;;;;;13.23;5.17;;;;;;;12.66;98.65;98162.78;5066849;28;20203;-59
2023/01/20 06:28:40;;;;;;;10.33;5.47;;;;;;;12.54;97.55;98134.88;5070480;28;20207;-59
2023/01/20 06:31:08;;;;;;;14.47;6.10;;;;;;;12.76;96.59;98172.66;5069519;28;20196;-59
2023/01/20 06:33:35;;;;;;;9.53;5.83;;;;;;;12.84;95.53;98168.69;5069128;28;20204;-59
2023/01/20 06:36:02;;;;;;;10.13;6.03;;;;;;;12.97;94.30;98168.81;5068637;28;20227;-60
2023/01/20 06:38:31;;;;;;;16.27;7.67;;;;;;;13.04;93.99;98175.31;5069283;28;20237;-58
2023/01/20 06:41:01;;;;;;;11.83;8.40;;;;;;;13.16;92.95;98184.19;5069998;28;20196;-59
2023/01/20 06:43:29;;;;;;;18.63;11.50;;;;;;;13.32;92.08;98187.50;5068818;28;20646;-59
2023/01/20 06:45:59;;;;;;;27.07;12.93;;;;;;;13.44;90.46;98212.81;5069251;28;20556;-58
2023/01/20 06:48:26;;;;;;;23.10;12.07;;;;;;;13.62;89.31;98205.66;5069167;28;20199;-59
2023/01/20 06:50:53;;;;;;;19.43;12.80;;;;;;;13.50;88.37;98191.63;5068438;28;20192;-59
2023/01/20 06:53:20;;;;;;;24.20;11.23;;;;;;;13.44;89.45;98205.84;5069099;28;20203;-59
2023/01/20 06:55:54;;;;;;;24.20;10.00;;;;;;;13.58;89.72;98198.97;5069160;28;20230;-60
2023/01/20 06:58:23;;;;;;;10.13;6.20;;;;;;;13.56;87.77;98183.41;5069224;28;20282;-60
2023/01/20 07:00:51;;;;;;;18.73;8.10;;;;;;;13.67;87.67;98178.34;5068682;28;20199;-59
2023/01/20 07:03:18;;;;;;;15.17;9.50;;;;;;;13.66;87.73;98175.84;5069134;28;20257;-60
2023/01/20 07:05:51;;;;;;;7.60;6.20;;;;;;;13.55;85.78;98176.50;5068878;28;20196;-60
2023/01/20 07:08:18;;;;;;;7.30;5.03;;;;;;;13.74;83.61;98143.16;5068736;28;20287;-60
2023/01/20 07:10:45;;;;;;;9.67;5.83;;;;;;;13.98;82.98;98151.19;5068524;28;20203;-60
2023/01/20 07:13:12;;;;;;;12.03;5.70;;;;;;;14.06;81.97;98159.34;5069919;28;20698;-60
2023/01/20 07:15:40;;;;;;;8.67;4.60;;;;;;;14.21;79.55;98157.53;5069748;28;20230;-61
2023/01/20 07:18:07;;;;;;;15.17;6.17;;;;;;;14.56;78.27;98144.78;5068872;28;20283;-60
2023/01/20 07:20:34;;;;;;;9.87;5.80;;;;;;;14.88;78.61;98140.88;5070283;28;20219;-56
2023/01/20 07:23:02;;;;;;;9.93;6.63;;;;;;;15.02;79.02;98150.34;5068937;28;20202;-56
2023/01/20 07:25:28;;;;;;;12.20;7.03;;;;;;;15.03;80.35;98162.47;5069350;28;20192;-55
2023/01/20 07:27:56;;;;;;;8.23;5.90;;;;;;;15.04;81.61;98168.53;5069211;28;20191;-60
2023/01/20 07:30:23;;;;;;;8.67;6.23;;;;;;;15.02;82.80;98179.09;5064558;28;20735;-60
2023/01/20 07:32:51;;;;;;;13.87;6.53;;;;;;;15.02;84.76;98166.03;5056458;28;20212;-59
2023/01/20 07:35:18;;;;;;;10.17;5.77;;;;;;;15.09;81.22;98192.59;5062399;28;20604;-60
2023/01/20 07:37:45;;;;;;;11.03;6.10;;;;;;;14.99;80.73;98208.06;5068073;28;20222;-58
2023/01/20 07:40:13;;;;;;;9.73;6.13;;;;;;;14.64;81.57;98207.78;5068397;28;20223;-59
2023/01/20 07:42:40;;;;;;;9.67;6.60;;;;;;;14.48;82.70;98220.16;5068590;28;20294;-60
2023/01/20 07:45:08;;;;;;;8.67;5.93;;;;;;;14.15;84.02;98189.22;5068177;28;20211;-59
2023/01/20 07:47:35;;;;;;;9.97;6.33;;;;;;;14.21;86.09;98207.13;5068498;28;20216;-60
2023/01/20 07:50:04;;;;;;;12.83;6.13;;;;;;;14.13;88.37;98217.19;5068059;28;20226;-60
2023/01/20 07:52:31;;;;;;;10.80;6.33;;;;;;;14.03;91.28;98226.53;5068542;28;20215;-58
2023/01/20 07:54:58;;;;;;;12.50;5.83;;;;;;;13.80;93.22;98239.25;5067608;28;20230;-59
2023/01/20 07:57:25;;;;;;;10.00;6.67;;;;;;;13.78;95.72;98256.75;5068367;28;20226;-59
2023/01/20 07:59:51;;;;;;;12.47;6.37;;;;;;;13.61;99.05;98277.81;5065405;28;20307;-59
2023/01/20 08:02:18;;;;;;;11.63;6.10;;;;;;;13.51;100.00;98338.44;5067647;28;20230;-61
2023/01/20 08:04:45;;;;;;;6.93;5.50;;;;;;;13.33;100.00;98382.88;5067063;28;21236;-60
2023/01/20 08:07:14;;;;;;;9.83;4.17;;;;;;;12.88;100.00;98391.50;5064561;28;20196;-60
2023/01/20 08:09:42;;;;;;;7.77;3.00;;;;;;;12.79;100.00;98396.38;5068923;28;20252;-60
2023/01/20 08:12:09;;;;;;;7.20;2.93;;;;;;;12.57;100.00;98396.72;5069175;28;20199;-59
2023/01/20 08:14:36;;;;;;;5.87;3.00;;;;;;;12.44;100.00;98414.78;5069519;28;20188;-60
2023/01/20 08:17:03;;;;;;;8.27;2.93;;;;;;;12.19;100.00;98420.44;5069348;28;20227;-59
2023/01/20 08:19:30;;;;;;;8.70;2.77;;;;;;;11.99;100.00;98402.44;5069198;28;20283;-60
2023/01/20 08:21:57;;;;;;;6.10;2.70;;;;;;;11.90;100.00;98410.72;5069108;28;20199;-59
2023/01/20 08:24:25;;;;;;;3.50;2.27;;;;;;;11.77;100.00;98404.47;5069706;28;20735;-61
2023/01/20 08:26:52;;;;;;;6.77;3.07;;;;;;;11.71;100.00;98402.16;5069411;28;20565;-55
2023/01/20 08:29:19;;;;;;;4.37;2.50;;;;;;;11.61;100.00;98402.63;5071654;28;20287;-57
2023/01/20 08:31:46;;;;;;;6.00;3.23;;;;;;;11.58;100.00;98383.75;5072617;28;20196;-57
2023/01/20 08:34:13;;;;;;;7.33;3.57;;;;;;;11.51;100.00;98393.59;5072791;28;20200;-56
2023/01/20 08:36:41;;;;;;;7.40;4.10;;;;;;;11.50;100.00;98381.56;5072779;28;20583;-56
2023/01/20 08:39:13;;;;;;;7.47;4.17;;;;;;;11.43;100.00;98356.78;5072459;28;20637;-56
2023/01/20 08:41:44;;;;;;;11.57;4.00;;;;;;;11.46;100.00;98361.81;5071925;28;20192;-58
2023/01/20 08:44:11;;;;;;;9.73;4.93;;;;;;;11.56;100.00;98376.03;5072499;28;20223;-59
2023/01/20 08:46:39;;;;;;;10.43;5.10;;;;;;;11.69;100.00;98389.25;5072116;28;20198;-59
2023/01/20 08:49:07;;;;;;;10.73;4.67;;;;;;;11.72;100.00;98375.25;5072371;28;20206;-59
2023/01/20 08:51:34;;;;;;;7.83;4.40;;;;;;;11.93;100.00;98394.97;5071781;28;20215;-56
2023/01/20 08:54:02;;;;;;;6.97;5.20;;;;;;;11.97;100.00;98391.28;5071566;28;20196;-56
2023/01/20 08:56:29;;;;;;;18.60;9.20;;;;;;;12.05;100.00;98383.09;5071709;28;20212;-55
2023/01/20 08:58:59;;;;;;;11.50;7.53;;;;;;;12.09;100.00;98354.22;5069341;28;20203;-56
2023/01/20 09:01:29;;;;;;;9.67;5.67;;;;;;;12.06;100.00;98328.41;5071822;28;20188;-60
2023/01/20 09:03:57;;;;;;;6.33;5.53;;;;;;;12.16;100.00;98313.97;5071676;28;20192;-59
2023/01/20 09:06:24;;;;;;;3.73;3.30;;;;;;;12.19;100.00;98308.59;5071987;28;20283;-59
2023/01/20 09:08:52;;;;;;;6.93;4.30;;;;;;;12.17;100.00;98307.84;5071958;28;20231;-59
2023/01/20 09:11:21;;;;;;;4.63;4.20;;;;;;;12.24;100.00;98290.13;5072115;28;20192;-57
2023/01/20 09:13:48;;;;;;;7.40;5.43;;;;;;;12.24;100.00;98274.53;5071989;28;20219;-56
2023/01/20 09:16:18;;;;;;;8.67;5.73;;;;;;;12.47;100.00;98257.63;5071808;28;20590;-56
2023/01/20 09:18:45;;;;;;;10.30;6.20;;;;;;;12.45;100.00;98252.50;5071928;28;20692;-56
2023/01/20 09:21:12;;;;;;;41.50;26.37;;;;;;;12.50;100.00;98239.25;5071951;28;20200;-57
2023/01/20 09:23:41;;;;;;;7.63;5.93;;;;;;;12.43;100.00;98207.53;5072083;28;20668;-57
2023/01/20 09:26:09;;;;;;;6.27;4.50;;;;;;;12.65;100.00;98191.50;5071808;28;20200;-55
2023/01/20 09:28:36;;;;;;;18.13;9.47;;;;;;;12.83;100.00;98160.97;5071705;28;20306;-56
2023/01/20 09:31:05;;;;;;;10.87;5.83;;;;;;;12.84;100.00;98145.25;5071632;28;20664;-58
2023/01/20 09:33:36;;;;;;;2.47;2.03;;;;;;;13.04;100.00;98162.28;5070642;28;20196;-56
2023/01/20 09:36:05;;;;;;;10.53;5.53;;;;;;;13.04;100.00;98131.88;5069856;28;20227;-56
2023/01/20 09:44:17;;;;;;;5.47;2.60;;;;;;;13.62;100.00;98088.34;5071144;28;20226;-56
2023/01/20 09:53:02;;;;;;;4.53;3.20;;;;;;;14.28;100.00;98124.88;5071329;28;20591;-56
2023/01/20 09:55:35;;;;;;;13.50;4.97;;;;;;;14.34;100.00;98121.84;5071026;28;20215;-55
2023/01/20 09:58:13;;;;;;;11.03;6.63;;;;;;;14.42;100.00;98113.56;5071071;28;20204;-56
2023/01/20 10:00:43;;;;;;;8.87;6.07;;;;;;;14.57;100.00;98115.13;5070940;28;20206;-56
2023/01/20 10:03:17;;;;;;;11.40;5.70;;;;;;;14.64;100.00;98100.72;5071088;28;20196;-56
2023/01/20 10:05:49;;;;;;;6.73;4.60;;;;;;;14.63;100.00;98100.84;5070897;28;20188;-56
2023/01/20 10:08:21;;;;;;;6.27;3.20;;;;;;;14.55;100.00;98093.53;5071132;28;20197;-56
2023/01/20 10:10:54;;;;;;;2.30;2.10;;;;;;;14.57;100.00;98065.50;5070737;28;20295;-55
2023/01/20 10:13:26;;;;;;;3.63;2.67;;;;;;;14.60;100.00;98051.41;5071127;28;20716;-55
2023/01/20 10:15:55;;;;;;;4.43;2.80;;;;;;;14.63;100.00;98065.13;5070764;28;20277;-60
2023/01/20 10:18:28;;;;;;;3.50;1.90;;;;;;;14.35;100.00;98081.75;5070836;28;20208;-59
2023/01/20 10:21:04;;;;;;;4.23;2.10;;;;;;;14.18;100.00;98095.09;5070699;28;20649;-56
2023/01/20 10:23:39;;;;;;;4.43;2.33;;;;;;;13.99;100.00;98079.00;5070467;28;20274;-55
2023/01/20 10:26:11;;;;;;;8.93;4.00;;;;;;;13.79;100.00;98056.81;5070544;28;20290;-56
2023/01/20 10:28:42;;;;;;;2.53;2.33;;;;;;;13.69;100.00;98072.22;5070628;28;20192;-60
2023/01/20 10:31:13;;;;;;;3.93;3.00;;;;;;;13.48;100.00;98088.38;5070931;28;20602;-60
2023/01/20 10:33:44;;;;;;;3.37;2.43;;;;;;;13.49;100.00;98085.69;5070905;28;20286;-60
2023/01/20 10:36:18;;;;;;;3.63;3.23;;;;;;;13.57;100.00;98065.16;5070173;28;20524;-56
2023/01/20 10:38:54;;;;;;;4.70;2.50;;;;;;;13.83;100.00;98092.19;5070441;28;20198;-55
2023/01/20 10:41:29;;;;;;;2.80;2.43;;;;;;;13.93;100.00;98084.59;5070348;28;20200;-56
2023/01/20 10:43:56;;;;;;;4.63;2.03;;;;;;;13.80;100.00;98069.75;5069954;28;20227;-55
2023/01/20 10:46:41;;;;;;;2.97;1.77;;;;;;;13.89;100.00;98083.13;5070087;28;20228;-55
2023/01/20 10:49:40;;;;;;;3.13;2.43;;;;;;;13.91;100.00;98065.59;5070147;28;20211;-55
2023/01/20 10:52:27;;;;;;;2.40;2.20;;;;;;;14.04;100.00;98069.91;5069347;28;20200;-54
2023/01/20 10:55:02;;;;;;;1.90;1.80;;;;;;;14.06;100.00;98070.66;5049880;28;20203;-55
2023/01/20 10:57:29;;;;;;;3.43;2.30;;;;;;;14.11;100.00;98080.78;5050214;28;20700;-55
2023/01/20 11:00:01;;;;;;;3.47;2.33;;;;;;;13.88;100.00;98058.00;5049990;28;20673;-55
2023/01/20 11:02:31;;;;;;;3.17;2.40;;;;;;;14.04;100.00;98069.91;5065870;28;20562;-56
2023/01/20 11:05:00;;;;;;;7.43;2.30;;;;;;;13.97;100.00;98052.16;5070186;28;20287;-55
2023/01/20 11:07:30;;;;;;;3.63;2.13;;;;;;;13.90;100.00;98049.13;5068803;28;20199;-55
2023/01/20 11:09:57;;;;;;;4.20;2.50;;;;;;;13.85;100.00;98047.75;5068876;28;20631;-55
2023/01/20 11:12:28;;;;;;;2.73;1.53;;;;;;;13.76;100.00;98042.22;5069763;28;20192;-55
2023/01/20 11:14:59;;;;;;;2.30;2.10;;;;;;;13.82;100.00;98030.53;5069983;28;20200;-59
2023/01/20 11:17:26;;;;;;;6.17;2.20;;;;;;;13.89;100.00;98030.94;5069870;28;20623;-59
2023/01/20 11:19:55;;;;;;;3.87;2.20;;;;;;;13.91;100.00;98034.31;5069525;28;20228;-59
2023/01/20 11:22:32;;;;;;;3.70;2.30;;;;;;;13.70;100.00;98034.78;5070163;28;20640;-61
2023/01/20 11:25:00;;;;;;;3.63;2.40;;;;;;;13.75;100.00;98026.66;5069704;28;20191;-59
2023/01/20 11:27:30;;;;;;;3.20;2.90;;;;;;;13.71;100.00;98036.44;5064190;28;20241;-58
2023/01/20 11:30:00;;;;;;;3.73;2.90;;;;;;;13.85;100.00;98029.50;5065756;28;20208;-58
2023/01/20 11:32:32;;;;;;;3.60;2.17;;;;;;;13.78;100.00;98014.25;5066717;28;20253;-58
2023/01/20 11:35:00;;;;;;;3.83;1.60;;;;;;;13.81;100.00;98015.81;5067617;28;20192;-58
2023/01/20 11:37:35;;;;;;;3.57;2.17;;;;;;;13.90;100.00;98015.22;5066669;28;20222;-58
2023/01/20 11:40:17;;;;;;;3.17;1.33;;;;;;;13.81;100.00;98014.03;5066931;28;20202;-58
2023/01/20 11:42:46;;;;;;;2.87;1.17;;;;;;;13.80;100.00;98009.75;5067077;28;20286;-58
2023/01/20 11:45:31;;;;;;;1.80;1.00;;;;;;;13.76;100.00;97997.88;5065438;28;20605;-58
2023/01/20 11:48:04;;;;;;;3.87;2.23;;;;;;;13.63;100.00;97980.53;5066421;28;20664;-59
2023/01/20 11:50:34;;;;;;;4.53;1.60;;;;;;;13.63;100.00;97981.38;5065306;28;20202;-58